Terminal Aerodrome Forecast
Issued by NWS Knoxville/Tri Cities, TN

Home | Current Version | Previous Version | Text Only | Print | Product List | Glossary On
Versions: 1 2 3 4 5 6 7 8 9 10 11 12 13 14 15 16 17 18 19 20 21 22 23 24 25 26 27 28 29 30 31 32 33 34 35 36 37 38 39 40
744
FTUS44 KMRX 231731
TAFTRI
TAF
KTRI 231731Z 2318/2418 VRB03KT P6SM VCSH BKN015
     FM232300 VRB02KT P6SM OVC050
     FM240600 00000KT 4SM BR OVC020
     FM240900 00000KT 2SM BR OVC015
     FM241500 18004KT 4SM BR BKN020=

USA.gov is the U.S. government's official web portal to all federal, state and local government web resources and services.